Nord Traveller — 3FWJ2 — position and weather

sailwx.info

Track history (hours):
 
Tides and Currents Weather Stations Pressure Air Temp Water Temp Dewpoint Dewpoint Depression Visibility Wind Speed Wind Dir Waves Ship Positions

Nord Traveller

Last reported at 2017-Dec-16 09:34 UTC. Time now 2018-Feb-25 03:59 UTC.
Position N 01°28' E 103°09'.
Warning: this ship's position is months out of date.

Length 190 m; draft 12.2 m.

Type: Cargo ship. MMSI: 370733000.

Date/timePositionNaut miles runAvg speedWind from/ knotsBaromVisibWave heightAir tempDewpointWater temp
2017-Dec-16 09:34N 01°28' E 103°09'115.0
2017-Dec-16 09:30N 01°28' E 103°10'815.2
2017-Dec-16 09:00N 01°23' E 103°15'815.1
2017-Dec-16 08:30N 01°18' E 103°21'814.7
2017-Dec-16 07:59N 01°14' E 103°28'613.2
2017-Dec-16 07:30N 01°12' E 103°34'611.9
2017-Dec-16 07:00N 01°11' E 103°40'611.0
2017-Dec-16 06:30N 01°08' E 103°45'510.0
2017-Dec-16 06:00N 01°11' E 103°49'510.1
2017-Dec-16 05:30N 01°13' E 103°54'510.2
2017-Dec-16 05:00N 01°15' E 103°58'5 9.8
2017-Dec-16 04:30N 01°16' E 104°03'610.9
2017-Dec-16 03:59N 01°16' E 104°09'  
2017-Dec-07 16:14N 34°05' E 139°11'512.0
2017-Dec-07 15:48N 34°08' E 139°15'311.6
2017-Dec-07 15:30N 34°11' E 139°18'710.6
2017-Dec-07 14:51N 34°16' E 139°24'411.0
2017-Dec-07 14:27N 34°20' E 139°26'511.6
2017-Dec-07 14:00N 34°25' E 139°28'612.9
2017-Dec-07 13:31N 34°31' E 139°30'713.3
2017-Dec-07 13:00N 34°37' E 139°32'713.8
2017-Dec-07 12:30N 34°44' E 139°34'714.7
2017-Dec-07 12:00N 34°51' E 139°37'714.5
2017-Dec-07 11:31N 34°58' E 139°39'713.6
2017-Dec-07 11:00N 35°04' E 139°42'612.8
2017-Dec-07 10:30N 35°10' E 139°46'510.8
2017-Dec-07 10:00N 35°16' E 139°46'611.5
2017-Dec-07 09:30N 35°21' E 139°43'510.4
2017-Dec-07 09:00N 35°25' E 139°45'611.8
2017-Dec-07 08:30N 35°29' E 139°51'511.0
2017-Dec-07 08:00N 35°32' E 139°56'510.4
2017-Dec-07 07:30N 35°34' E 140°02'4 7.1
2017-Dec-07 07:00N 35°35' E 140°06'1 1.9
2017-Dec-07 06:31N 35°35' E 140°07'0 0.0
2017-Dec-07 06:01N 35°35' E 140°07'0 0.0
2017-Dec-07 05:31N 35°35' E 140°07'0 0.0
2017-Dec-07 05:01N 35°35' E 140°07'0 0.0
2017-Dec-07 04:30N 35°35' E 140°07'0 0.0
2017-Dec-07 04:01N 35°35' E 140°07'0 0.0
2017-Dec-07 03:31N 35°35' E 140°07'0 0.0
2017-Dec-07 03:01N 35°35' E 140°07'0 0.0
2017-Dec-07 02:31N 35°35' E 140°07'0 0.0
2017-Dec-07 02:01N 35°35' E 140°07'0 0.0
2017-Dec-07 01:31N 35°35' E 140°07'0 0.0
2017-Dec-07 01:00N 35°35' E 140°07'0 0.0
2017-Dec-07 00:30N 35°35' E 140°07'0 0.0
2017-Dec-07 00:00N 35°35' E 140°07'0 0.0
2017-Dec-06 23:30N 35°35' E 140°07'0 0.0
2017-Dec-06 23:01N 35°35' E 140°07'0 0.0
2017-Dec-06 22:30N 35°35' E 140°07'0 0.0
2017-Dec-06 22:00N 35°35' E 140°07'0 0.0
2017-Dec-06 21:30N 35°35' E 140°07'0 0.0
2017-Dec-06 21:00N 35°35' E 140°07'  
Track history (hours):
 
Tides and Currents Weather Stations Pressure Air Temp Water Temp Dewpoint Dewpoint Depression Visibility Wind Speed Wind Dir Waves Ship Positions

Nord Traveller

Last reported at 2017-Dec-16 09:34 UTC. Time now 2018-Feb-25 03:59 UTC.
Position N 01°28' E 103°09'.
Warning: this ship's position is months out of date.

Length 190 m; draft 12.2 m.

Type: Cargo ship. MMSI: 370733000.

Date/timePositionNaut miles runAvg speedWind from/ knotsBaromVisibWave heightAir tempDewpointWater temp
2017-Dec-16 09:34N 01°28' E 103°09'115.0
2017-Dec-16 09:30N 01°28' E 103°10'815.2
2017-Dec-16 09:00N 01°23' E 103°15'815.1
2017-Dec-16 08:30N 01°18' E 103°21'814.7
2017-Dec-16 07:59N 01°14' E 103°28'613.2
2017-Dec-16 07:30N 01°12' E 103°34'611.9
2017-Dec-16 07:00N 01°11' E 103°40'611.0
2017-Dec-16 06:30N 01°08' E 103°45'510.0
2017-Dec-16 06:00N 01°11' E 103°49'510.1
2017-Dec-16 05:30N 01°13' E 103°54'510.2
2017-Dec-16 05:00N 01°15' E 103°58'5 9.8
2017-Dec-16 04:30N 01°16' E 104°03'610.9
2017-Dec-16 03:59N 01°16' E 104°09'  
2017-Dec-07 16:14N 34°05' E 139°11'512.0
2017-Dec-07 15:48N 34°08' E 139°15'311.6
2017-Dec-07 15:30N 34°11' E 139°18'710.6
2017-Dec-07 14:51N 34°16' E 139°24'411.0
2017-Dec-07 14:27N 34°20' E 139°26'511.6
2017-Dec-07 14:00N 34°25' E 139°28'612.9
2017-Dec-07 13:31N 34°31' E 139°30'713.3
2017-Dec-07 13:00N 34°37' E 139°32'713.8
2017-Dec-07 12:30N 34°44' E 139°34'714.7
2017-Dec-07 12:00N 34°51' E 139°37'714.5
2017-Dec-07 11:31N 34°58' E 139°39'713.6
2017-Dec-07 11:00N 35°04' E 139°42'612.8
2017-Dec-07 10:30N 35°10' E 139°46'510.8
2017-Dec-07 10:00N 35°16' E 139°46'611.5
2017-Dec-07 09:30N 35°21' E 139°43'510.4
2017-Dec-07 09:00N 35°25' E 139°45'611.8
2017-Dec-07 08:30N 35°29' E 139°51'511.0
2017-Dec-07 08:00N 35°32' E 139°56'510.4
2017-Dec-07 07:30N 35°34' E 140°02'4 7.1
2017-Dec-07 07:00N 35°35' E 140°06'1 1.9
2017-Dec-07 06:31N 35°35' E 140°07'0 0.0
2017-Dec-07 06:01N 35°35' E 140°07'0 0.0
2017-Dec-07 05:31N 35°35' E 140°07'0 0.0
2017-Dec-07 05:01N 35°35' E 140°07'0 0.0
2017-Dec-07 04:30N 35°35' E 140°07'0 0.0
2017-Dec-07 04:01N 35°35' E 140°07'0 0.0
2017-Dec-07 03:31N 35°35' E 140°07'0 0.0
2017-Dec-07 03:01N 35°35' E 140°07'0 0.0
2017-Dec-07 02:31N 35°35' E 140°07'0 0.0
2017-Dec-07 02:01N 35°35' E 140°07'0 0.0
2017-Dec-07 01:31N 35°35' E 140°07'0 0.0
2017-Dec-07 01:00N 35°35' E 140°07'0 0.0
2017-Dec-07 00:30N 35°35' E 140°07'0 0.0
2017-Dec-07 00:00N 35°35' E 140°07'0 0.0
2017-Dec-06 23:30N 35°35' E 140°07'0 0.0
2017-Dec-06 23:01N 35°35' E 140°07'0 0.0
2017-Dec-06 22:30N 35°35' E 140°07'0 0.0
2017-Dec-06 22:00N 35°35' E 140°07'0 0.0
2017-Dec-06 21:30N 35°35' E 140°07'0 0.0
2017-Dec-06 21:00N 35°35' E 140°07'  

Dump ship's entire track history